createdAt,value
2023-06-23T00:02:18.922Z,18.92
2023-06-23T00:04:45.230Z,18.81
2023-06-23T00:07:11.450Z,18.73
2023-06-23T00:09:38.064Z,18.67
2023-06-23T00:12:07.895Z,18.55
2023-06-23T00:14:34.370Z,18.46
2023-06-23T00:17:01.157Z,18.40
2023-06-23T00:19:27.355Z,18.40
2023-06-23T00:21:53.495Z,18.38
2023-06-23T00:24:19.676Z,18.32
2023-06-23T00:26:45.769Z,18.31
2023-06-23T00:29:12.014Z,18.27
2023-06-23T00:31:38.242Z,18.15
2023-06-23T00:34:04.487Z,18.00
2023-06-23T00:36:31.045Z,17.94
2023-06-23T00:38:57.275Z,17.85
2023-06-23T00:41:23.413Z,17.79
2023-06-23T00:43:50.392Z,17.72
2023-06-23T00:46:16.731Z,17.67
2023-06-23T00:48:43.106Z,17.55
2023-06-23T00:51:09.697Z,17.50
2023-06-23T00:53:35.959Z,17.49
2023-06-23T00:56:02.154Z,17.48
2023-06-23T00:58:28.323Z,17.52
2023-06-23T01:00:54.668Z,17.53
2023-06-23T01:03:20.969Z,17.54
2023-06-23T01:05:47.332Z,17.54
2023-06-23T01:08:13.584Z,17.52
2023-06-23T01:10:39.752Z,17.51
2023-06-23T01:13:05.843Z,17.47
2023-06-23T01:15:32.297Z,17.44
2023-06-23T01:17:58.717Z,17.43
2023-06-23T01:20:25.507Z,17.41
2023-06-23T01:22:51.690Z,17.37
2023-06-23T01:25:17.871Z,17.38
2023-06-23T01:27:43.970Z,17.38
2023-06-23T01:30:10.305Z,17.37
2023-06-23T01:32:36.441Z,17.30
2023-06-23T01:35:03.635Z,17.26
2023-06-23T01:37:29.852Z,17.31
2023-06-23T01:39:56.069Z,17.33
2023-06-23T01:42:22.360Z,17.33
2023-06-23T01:44:48.880Z,17.28
2023-06-23T01:47:14.980Z,17.20
2023-06-23T01:49:41.089Z,17.15
2023-06-23T01:52:07.617Z,17.14
2023-06-23T01:54:33.764Z,17.12
2023-06-23T01:57:00.091Z,16.98
2023-06-23T01:59:26.319Z,16.85
2023-06-23T02:01:52.570Z,16.79
2023-06-23T02:04:19.110Z,16.76
2023-06-23T02:06:45.460Z,16.74
2023-06-23T02:09:11.644Z,16.72
2023-06-23T02:11:37.833Z,16.68
2023-06-23T02:14:04.129Z,16.64
2023-06-23T02:16:30.235Z,16.61
2023-06-23T02:18:57.067Z,16.57
2023-06-23T02:21:23.318Z,16.50
2023-06-23T02:23:49.506Z,16.48
2023-06-23T02:26:15.708Z,16.50
2023-06-23T02:28:41.917Z,16.50
2023-06-23T02:31:08.947Z,16.48
2023-06-23T02:33:35.177Z,16.44
2023-06-23T02:36:01.423Z,16.43
2023-06-23T02:38:27.610Z,16.45
2023-06-23T02:40:53.751Z,16.44
2023-06-23T02:43:20.920Z,16.35
2023-06-23T02:45:47.126Z,16.31
2023-06-23T02:48:13.262Z,16.34
2023-06-23T02:50:39.468Z,16.33
2023-06-23T02:53:06.953Z,16.26
2023-06-23T02:55:33.406Z,16.19
2023-06-23T02:58:00.039Z,16.19
2023-06-23T03:00:27.029Z,16.24
2023-06-23T03:02:53.319Z,16.28
2023-06-23T03:05:21.748Z,16.31
2023-06-23T03:07:47.969Z,16.34
2023-06-23T03:10:14.463Z,16.34
2023-06-23T03:12:40.851Z,16.38
2023-06-23T03:15:07.047Z,16.47
2023-06-23T03:17:33.254Z,16.55
2023-06-23T03:19:59.489Z,16.64
2023-06-23T03:22:25.718Z,16.69
2023-06-23T03:24:52.057Z,16.73
2023-06-23T03:27:18.310Z,16.71
2023-06-23T03:29:44.472Z,16.68
2023-06-23T03:32:10.832Z,16.56
2023-06-23T03:34:37.095Z,16.35
2023-06-23T03:37:03.193Z,16.24
2023-06-23T03:39:29.439Z,16.21
2023-06-23T03:41:57.332Z,16.23
2023-06-23T03:44:23.730Z,16.32
2023-06-23T03:46:50.177Z,16.39
2023-06-23T03:49:16.582Z,16.35
2023-06-23T03:51:42.783Z,16.29
2023-06-23T03:54:09.195Z,16.28
2023-06-23T03:56:35.466Z,16.26
2023-06-23T03:59:03.026Z,16.28
2023-06-23T04:01:29.277Z,16.24
2023-06-23T04:03:55.569Z,16.21
2023-06-23T04:06:22.177Z,16.29
2023-06-23T04:08:48.531Z,16.36
2023-06-23T04:11:14.662Z,16.41
2023-06-23T04:13:40.875Z,16.44
2023-06-23T04:16:07.173Z,16.52
2023-06-23T04:18:33.327Z,16.64
2023-06-23T04:20:59.476Z,16.83
2023-06-23T04:23:25.742Z,17.04
2023-06-23T04:25:52.077Z,17.21
2023-06-23T04:28:18.226Z,17.34
2023-06-23T04:30:44.336Z,17.50
2023-06-23T04:33:10.655Z,17.67
2023-06-23T04:35:36.788Z,17.83
2023-06-23T04:38:03.120Z,18.00
2023-06-23T04:40:29.376Z,18.16
2023-06-23T04:42:55.666Z,18.32
2023-06-23T04:45:21.885Z,18.42
2023-06-23T04:47:48.415Z,18.55
2023-06-23T04:50:14.756Z,18.76
2023-06-23T04:52:40.886Z,18.86
2023-06-23T04:55:07.155Z,18.93
2023-06-23T04:57:33.296Z,18.90
2023-06-23T04:59:59.497Z,18.79
2023-06-23T05:02:25.936Z,18.74
2023-06-23T05:04:55.486Z,18.73
2023-06-23T05:07:22.945Z,18.80
2023-06-23T05:09:49.215Z,18.89
2023-06-23T05:12:15.527Z,18.94
2023-06-23T05:14:41.777Z,19.01
2023-06-23T05:17:09.067Z,19.12
2023-06-23T05:19:36.431Z,19.21
2023-06-23T05:22:02.608Z,19.30
2023-06-23T05:24:31.240Z,19.41
2023-06-23T05:27:00.010Z,19.53
2023-06-23T05:29:26.172Z,19.71
2023-06-23T05:31:52.372Z,19.93
2023-06-23T05:34:18.694Z,20.15
2023-06-23T05:36:45.417Z,20.31
2023-06-23T05:39:12.417Z,20.48
2023-06-23T05:41:38.597Z,20.66
2023-06-23T05:44:04.772Z,20.84
2023-06-23T05:46:31.050Z,21.01
2023-06-23T05:48:57.328Z,21.19
2023-06-23T05:51:23.516Z,21.34
2023-06-23T05:53:49.786Z,21.47
2023-06-23T05:56:16.192Z,21.56
2023-06-23T05:58:42.389Z,21.71
2023-06-23T06:01:08.663Z,21.88
2023-06-23T06:03:35.006Z,22.01
2023-06-23T06:06:01.425Z,22.11
2023-06-23T06:08:27.690Z,22.20
2023-06-23T06:10:53.824Z,22.29
2023-06-23T06:13:19.970Z,22.28
2023-06-23T06:15:46.477Z,22.27
2023-06-23T06:18:15.389Z,22.28
2023-06-23T06:20:42.070Z,22.30
2023-06-23T06:23:24.057Z,22.37
2023-06-23T06:25:51.276Z,22.42
2023-06-23T06:28:17.537Z,22.44
2023-06-23T06:30:43.809Z,22.42
2023-06-23T06:33:09.960Z,22.44
2023-06-23T06:35:36.336Z,22.47
2023-06-23T06:38:02.470Z,22.48
2023-06-23T06:40:28.605Z,22.48
2023-06-23T06:42:54.816Z,22.53
2023-06-23T06:45:20.990Z,22.56
2023-06-23T06:47:47.368Z,22.54
2023-06-23T06:50:13.576Z,22.62
2023-06-23T06:52:45.588Z,22.75
2023-06-23T06:55:15.226Z,22.85
2023-06-23T06:57:41.520Z,22.96
2023-06-23T07:00:10.162Z,23.04
2023-06-23T07:02:36.524Z,23.10
2023-06-23T07:05:02.953Z,23.19
2023-06-23T07:07:29.287Z,23.21
2023-06-23T07:09:55.628Z,23.27
2023-06-23T07:12:23.581Z,23.31
2023-06-23T07:14:49.778Z,23.35
2023-06-23T07:17:15.938Z,23.41
2023-06-23T07:19:42.060Z,23.52
2023-06-23T07:22:08.865Z,23.63
2023-06-23T07:24:35.015Z,23.80
2023-06-23T07:27:01.140Z,23.94
2023-06-23T07:29:27.450Z,24.06
2023-06-23T07:31:53.728Z,24.28
2023-06-23T07:34:19.941Z,24.43
2023-06-23T07:36:46.562Z,24.49
2023-06-23T07:39:12.800Z,24.51
2023-06-23T07:41:38.974Z,24.55
2023-06-23T07:44:05.153Z,24.53
2023-06-23T07:46:31.572Z,24.57
2023-06-23T07:48:58.019Z,24.62
2023-06-23T07:51:24.126Z,24.64
2023-06-23T07:54:05.410Z,24.67
2023-06-23T07:56:32.662Z,24.72
2023-06-23T07:58:58.828Z,24.73
2023-06-23T08:01:25.006Z,24.74
2023-06-23T08:03:51.363Z,24.74
2023-06-23T08:06:23.815Z,24.77
2023-06-23T08:08:49.975Z,24.82
2023-06-23T08:11:16.340Z,24.83
2023-06-23T08:13:42.581Z,24.91
2023-06-23T08:16:08.796Z,24.98
2023-06-23T08:18:34.990Z,24.99
2023-06-23T08:21:01.262Z,25.01
2023-06-23T08:23:27.541Z,25.05
2023-06-23T08:25:53.701Z,25.14
2023-06-23T08:28:20.037Z,25.17
2023-06-23T08:30:46.175Z,25.21
2023-06-23T08:33:12.654Z,25.25
2023-06-23T08:35:39.007Z,25.31
2023-06-23T08:38:05.304Z,25.44
2023-06-23T08:40:31.627Z,25.55
2023-06-23T08:42:58.419Z,25.62
2023-06-23T08:45:24.983Z,25.80
2023-06-23T08:47:52.148Z,25.91
2023-06-23T08:50:18.763Z,25.99
2023-06-23T08:52:44.904Z,26.05
2023-06-23T08:55:11.044Z,26.11
2023-06-23T08:57:39.372Z,26.19
2023-06-23T09:00:05.833Z,26.32
2023-06-23T09:02:32.191Z,26.38
2023-06-23T09:04:58.444Z,26.44
2023-06-23T09:07:25.470Z,26.59
2023-06-23T09:09:51.584Z,26.72
2023-06-23T09:12:21.091Z,26.81
2023-06-23T09:14:47.334Z,26.86
2023-06-23T09:17:13.732Z,26.96
2023-06-23T09:19:40.467Z,27.13
2023-06-23T09:22:09.339Z,27.23
2023-06-23T09:24:35.626Z,27.16
2023-06-23T09:27:01.791Z,27.10
2023-06-23T09:29:28.027Z,27.15
2023-06-23T09:31:55.240Z,27.18
2023-06-23T09:34:22.098Z,27.28
2023-06-23T09:36:48.229Z,27.33
2023-06-23T09:39:14.876Z,27.43
2023-06-23T09:41:51.666Z,27.57
2023-06-23T09:44:18.643Z,27.68
2023-06-23T09:46:44.834Z,27.73
2023-06-23T09:49:11.085Z,27.77
2023-06-23T09:51:37.254Z,27.79
2023-06-23T09:54:03.612Z,27.85
2023-06-23T09:56:29.789Z,27.91
2023-06-23T09:58:55.913Z,27.92
2023-06-23T10:01:23.239Z,27.94
2023-06-23T10:03:49.666Z,27.96
2023-06-23T10:06:15.871Z,28.06
2023-06-23T10:08:41.998Z,28.14
2023-06-23T10:11:08.186Z,28.08
2023-06-23T10:13:34.574Z,27.93
2023-06-23T10:16:00.746Z,27.85
2023-06-23T10:18:26.862Z,27.85
2023-06-23T10:20:52.973Z,27.88
2023-06-23T10:23:19.157Z,27.93
2023-06-23T10:25:48.296Z,27.98
2023-06-23T10:28:14.519Z,28.07
2023-06-23T10:30:41.343Z,28.14
2023-06-23T10:33:07.521Z,28.17
2023-06-23T10:35:33.939Z,28.29
2023-06-23T10:38:00.436Z,28.45
2023-06-23T10:40:26.778Z,28.52
2023-06-23T10:42:52.918Z,28.58
2023-06-23T10:45:19.038Z,28.65
2023-06-23T10:47:45.449Z,28.82
2023-06-23T10:50:11.749Z,28.90
2023-06-23T10:52:38.187Z,28.97
2023-06-23T10:55:04.301Z,28.97
2023-06-23T10:57:30.513Z,28.86
2023-06-23T10:59:56.677Z,28.69
2023-06-23T11:02:23.537Z,28.52
2023-06-23T11:04:49.770Z,28.32
2023-06-23T11:07:16.138Z,28.09
2023-06-23T11:09:45.430Z,27.94
2023-06-23T11:12:12.391Z,27.85
2023-06-23T11:14:38.559Z,27.84
2023-06-23T11:17:04.717Z,27.85
2023-06-23T11:19:31.079Z,27.89
2023-06-23T11:21:57.518Z,27.87
2023-06-23T11:24:23.641Z,27.88
2023-06-23T11:26:49.942Z,27.89
2023-06-23T11:29:16.144Z,27.88
2023-06-23T11:31:42.277Z,27.88
2023-06-23T11:34:08.454Z,27.79
2023-06-23T11:36:34.596Z,27.70
2023-06-23T11:39:03.977Z,27.58
2023-06-23T11:41:33.307Z,27.47
2023-06-23T11:44:00.921Z,27.20
2023-06-23T11:46:27.111Z,26.91
2023-06-23T11:48:54.138Z,26.69
2023-06-23T11:51:21.782Z,26.45
2023-06-23T11:53:47.959Z,26.25
2023-06-23T11:56:14.246Z,26.16
2023-06-23T11:58:40.403Z,26.03
2023-06-23T12:01:06.730Z,25.77
2023-06-23T12:03:33.440Z,25.52
2023-06-23T12:06:02.662Z,25.28
2023-06-23T12:08:29.736Z,25.09
2023-06-23T12:10:57.297Z,24.91
2023-06-23T12:13:23.426Z,24.67
2023-06-23T12:15:50.453Z,24.48
2023-06-23T12:18:17.521Z,24.35
2023-06-23T12:20:43.924Z,24.27
2023-06-23T12:23:14.369Z,24.25
2023-06-23T12:25:40.513Z,24.14
2023-06-23T12:28:06.711Z,24.07
2023-06-23T12:30:32.946Z,24.03
2023-06-23T12:32:59.295Z,24.00
2023-06-23T12:35:26.099Z,23.93
2023-06-23T12:37:52.473Z,23.91
2023-06-23T12:40:18.781Z,23.97
2023-06-23T12:42:46.958Z,24.03
2023-06-23T12:45:14.455Z,24.11
2023-06-23T12:47:40.591Z,24.17
2023-06-23T12:50:11.621Z,24.17
2023-06-23T12:52:38.826Z,24.15
2023-06-23T12:55:05.621Z,24.11
2023-06-23T12:57:31.795Z,24.02
2023-06-23T12:59:57.918Z,24.00
2023-06-23T13:02:24.042Z,23.99
2023-06-23T13:04:50.223Z,23.94
2023-06-23T13:07:16.360Z,23.80
2023-06-23T13:09:42.544Z,23.72
2023-06-23T13:12:08.824Z,23.70
2023-06-23T13:14:34.949Z,23.71
2023-06-23T13:17:01.570Z,23.76
2023-06-23T13:19:27.792Z,23.77
2023-06-23T13:21:53.890Z,23.78
2023-06-23T13:24:20.081Z,23.84
2023-06-23T13:26:48.492Z,23.88
2023-06-23T13:29:15.918Z,23.86
2023-06-23T13:31:43.052Z,23.83
2023-06-23T13:34:09.220Z,23.78
2023-06-23T13:36:36.654Z,23.70
2023-06-23T13:39:03.644Z,23.59
2023-06-23T13:41:29.926Z,23.56
2023-06-23T13:43:56.494Z,23.58
2023-06-23T13:46:22.678Z,23.60
2023-06-23T13:48:48.955Z,23.58
2023-06-23T13:51:15.035Z,23.63
2023-06-23T13:53:41.136Z,23.68
2023-06-23T13:56:07.455Z,23.59
2023-06-23T13:58:33.871Z,23.55
2023-06-23T14:01:00.065Z,23.55
2023-06-23T14:03:26.620Z,23.50
2023-06-23T14:05:55.280Z,23.44
2023-06-23T14:08:21.953Z,23.48
2023-06-23T14:10:48.355Z,23.47
2023-06-23T14:13:14.929Z,23.48
2023-06-23T14:15:41.249Z,23.52
2023-06-23T14:18:07.753Z,23.54
2023-06-23T14:20:33.897Z,23.56
2023-06-23T14:23:00.444Z,23.51
2023-06-23T14:25:26.611Z,23.48
2023-06-23T14:27:52.761Z,23.46
2023-06-23T14:30:19.680Z,23.40
2023-06-23T14:32:49.244Z,23.38
2023-06-23T14:35:15.450Z,23.39
2023-06-23T14:37:41.574Z,23.39
2023-06-23T14:40:09.583Z,23.35
2023-06-23T14:42:35.826Z,23.34
2023-06-23T14:45:02.060Z,23.31
2023-06-23T14:47:28.497Z,23.30
2023-06-23T14:49:56.505Z,23.29
2023-06-23T14:52:22.658Z,23.32
2023-06-23T14:54:48.890Z,23.32
2023-06-23T14:57:14.978Z,23.31
2023-06-23T14:59:41.217Z,23.28
2023-06-23T15:02:07.549Z,23.25
2023-06-23T15:04:33.853Z,23.25
2023-06-23T15:07:00.188Z,23.22
2023-06-23T15:09:27.529Z,23.08
2023-06-23T15:11:53.661Z,22.97
2023-06-23T15:14:19.819Z,22.93
2023-06-23T15:16:46.036Z,22.90
2023-06-23T15:19:12.350Z,22.82
2023-06-23T15:21:38.512Z,22.69
2023-06-23T15:24:04.726Z,22.55
2023-06-23T15:26:30.939Z,22.47
2023-06-23T15:28:57.052Z,22.40
2023-06-23T15:31:23.817Z,22.36
2023-06-23T15:33:50.198Z,22.36
2023-06-23T15:36:16.272Z,22.32
2023-06-23T15:38:42.459Z,22.27
2023-06-23T15:41:08.779Z,22.24
2023-06-23T15:43:34.875Z,22.21
2023-06-23T15:46:01.222Z,22.14
2023-06-23T15:48:27.469Z,22.09
2023-06-23T15:50:55.510Z,22.07
2023-06-23T15:53:23.474Z,22.06
2023-06-23T15:55:49.695Z,22.04
2023-06-23T15:58:15.802Z,22.02
2023-06-23T16:00:42.275Z,22.01
2023-06-23T16:03:08.523Z,21.97
2023-06-23T16:05:35.343Z,21.92
2023-06-23T16:08:01.726Z,21.84
2023-06-23T16:10:27.917Z,21.78
2023-06-23T16:12:54.018Z,21.72
2023-06-23T16:15:20.280Z,21.69
2023-06-23T16:17:46.800Z,21.66
2023-06-23T16:20:13.133Z,21.65
2023-06-23T16:22:39.330Z,21.68
2023-06-23T16:25:05.723Z,21.70
2023-06-23T16:27:32.375Z,21.64
2023-06-23T16:29:58.797Z,21.52
2023-06-23T16:32:26.176Z,21.47
2023-06-23T16:34:52.393Z,21.42
2023-06-23T16:37:19.393Z,21.39
2023-06-23T16:39:45.640Z,21.41
2023-06-23T16:42:11.783Z,21.45
2023-06-23T16:44:38.397Z,21.51
2023-06-23T16:47:04.618Z,21.45
2023-06-23T16:49:30.781Z,21.33
2023-06-23T16:51:57.036Z,21.26
2023-06-23T16:54:23.291Z,21.20
2023-06-23T16:56:49.426Z,21.18
2023-06-23T16:59:15.578Z,21.20
2023-06-23T17:01:41.697Z,21.22
2023-06-23T17:04:08.157Z,21.22
2023-06-23T17:06:34.602Z,21.19
2023-06-23T17:09:00.900Z,21.19
2023-06-23T17:11:28.240Z,21.19
2023-06-23T17:13:54.389Z,21.17
2023-06-23T17:16:21.086Z,21.15
2023-06-23T17:18:47.347Z,21.12
2023-06-23T17:21:13.632Z,21.06
2023-06-23T17:23:39.781Z,21.00
2023-06-23T17:26:06.004Z,21.01
2023-06-23T17:28:32.242Z,21.04
2023-06-23T17:30:58.437Z,21.03
2023-06-23T17:33:24.653Z,21.01
2023-06-23T17:35:50.811Z,21.00
2023-06-23T17:38:16.968Z,21.00
2023-06-23T17:40:43.591Z,20.97
2023-06-23T17:43:09.762Z,20.89
2023-06-23T17:45:36.240Z,20.72
2023-06-23T17:48:03.085Z,20.59
2023-06-23T17:50:29.353Z,20.53
2023-06-23T17:52:55.476Z,20.43
2023-06-23T17:55:21.761Z,20.33
2023-06-23T17:57:47.971Z,20.09
2023-06-23T18:00:14.125Z,19.82
2023-06-23T18:02:40.334Z,19.69
2023-06-23T18:05:06.984Z,19.51
2023-06-23T18:07:33.220Z,19.34
2023-06-23T18:09:59.463Z,19.23
2023-06-23T18:12:25.830Z,19.15
2023-06-23T18:14:51.950Z,19.10
2023-06-23T18:17:18.031Z,19.07
2023-06-23T18:19:44.285Z,19.04
2023-06-23T18:22:10.611Z,19.00
2023-06-23T18:24:36.989Z,19.00
2023-06-23T18:27:03.144Z,18.97
2023-06-23T18:29:29.278Z,18.98
2023-06-23T18:32:19.055Z,19.04
2023-06-23T18:34:45.304Z,18.95
2023-06-23T18:37:11.473Z,18.89
2023-06-23T18:39:37.666Z,18.82
2023-06-23T18:42:03.943Z,18.71
2023-06-23T18:44:30.241Z,18.65
2023-06-23T18:46:56.493Z,18.65
2023-06-23T18:49:23.065Z,18.68
2023-06-23T18:51:49.198Z,18.68
2023-06-23T18:54:15.376Z,18.70
2023-06-23T18:56:41.560Z,18.72
2023-06-23T18:59:07.735Z,18.72
2023-06-23T19:01:33.920Z,18.70
2023-06-23T19:04:00.526Z,18.69
2023-06-23T19:06:26.750Z,18.70
2023-06-23T19:08:54.261Z,18.72
2023-06-23T19:11:20.353Z,18.73
2023-06-23T19:13:46.570Z,18.77
2023-06-23T19:16:12.807Z,18.77
2023-06-23T19:18:38.948Z,18.73
2023-06-23T19:21:05.286Z,18.71
2023-06-23T19:23:31.609Z,18.63
2023-06-23T19:25:57.927Z,18.54
2023-06-23T19:28:24.025Z,18.49
2023-06-23T19:30:50.188Z,18.52
2023-06-23T19:33:16.329Z,18.48
2023-06-23T19:35:42.530Z,18.44
2023-06-23T19:38:08.782Z,18.43
2023-06-23T19:40:35.077Z,18.43
2023-06-23T19:43:01.458Z,18.42
2023-06-23T19:45:28.048Z,18.42
2023-06-23T19:47:54.366Z,18.42
2023-06-23T19:50:20.904Z,18.38
2023-06-23T19:52:47.153Z,18.33
2023-06-23T19:55:13.435Z,18.32
2023-06-23T19:57:39.670Z,18.28
2023-06-23T20:00:06.382Z,18.26
2023-06-23T20:02:32.595Z,18.22
2023-06-23T20:04:58.757Z,18.17
2023-06-23T20:07:25.085Z,18.10
2023-06-23T20:09:51.341Z,18.02
2023-06-23T20:12:17.463Z,17.93
2023-06-23T20:14:43.678Z,17.83
2023-06-23T20:17:09.862Z,17.78
2023-06-23T20:19:35.974Z,17.76
2023-06-23T20:22:02.183Z,17.75
2023-06-23T20:24:28.473Z,17.74
2023-06-23T20:26:54.576Z,17.77
2023-06-23T20:29:20.770Z,17.83
2023-06-23T20:31:46.901Z,17.90
2023-06-23T20:34:13.004Z,17.96
2023-06-23T20:36:39.199Z,17.97
2023-06-23T20:39:05.766Z,18.02
2023-06-23T20:41:31.909Z,18.08
2023-06-23T20:43:58.111Z,18.08
2023-06-23T20:46:24.275Z,18.08
2023-06-23T20:48:50.426Z,18.13
2023-06-23T20:51:16.761Z,18.12
2023-06-23T20:53:44.237Z,18.07
2023-06-23T20:56:10.689Z,18.03
2023-06-23T20:58:37.005Z,17.92
2023-06-23T21:01:03.145Z,17.73
2023-06-23T21:03:29.552Z,17.61
2023-06-23T21:05:55.839Z,17.60
2023-06-23T21:08:21.945Z,17.62
2023-06-23T21:10:48.216Z,17.68
2023-06-23T21:13:14.385Z,17.74
2023-06-23T21:15:40.603Z,17.78
2023-06-23T21:18:07.438Z,17.80
2023-06-23T21:20:34.120Z,17.87
2023-06-23T21:23:00.520Z,17.90
2023-06-23T21:25:26.861Z,17.93
2023-06-23T21:27:53.057Z,17.98
2023-06-23T21:30:19.378Z,17.95
2023-06-23T21:32:45.565Z,17.91
2023-06-23T21:35:12.529Z,17.89
2023-06-23T21:37:38.635Z,17.86
2023-06-23T21:40:04.870Z,17.87
2023-06-23T21:42:31.125Z,17.89
2023-06-23T21:44:57.250Z,17.91
2023-06-23T21:47:23.405Z,17.95
2023-06-23T21:49:49.652Z,17.98
2023-06-23T21:52:15.763Z,18.00
2023-06-23T21:54:41.954Z,18.03
2023-06-23T21:57:08.135Z,18.03
2023-06-23T21:59:34.211Z,18.00
2023-06-23T22:02:01.654Z,17.98
2023-06-23T22:04:27.944Z,17.93
2023-06-23T22:06:54.165Z,17.90
2023-06-23T22:09:20.389Z,17.88
2023-06-23T22:11:46.561Z,17.87
2023-06-23T22:14:12.692Z,17.91
2023-06-23T22:16:38.870Z,17.95
2023-06-23T22:19:05.148Z,17.96
2023-06-23T22:21:31.389Z,17.94
2023-06-23T22:23:57.498Z,17.92
2023-06-23T22:26:23.850Z,17.94
2023-06-23T22:28:50.063Z,17.98
2023-06-23T22:31:16.331Z,18.03
2023-06-23T22:33:42.613Z,18.06
2023-06-23T22:36:08.781Z,18.08
2023-06-23T22:38:34.997Z,18.09
2023-06-23T22:41:01.145Z,18.06
2023-06-23T22:43:27.287Z,18.05
2023-06-23T22:45:53.495Z,18.04
2023-06-23T22:48:19.823Z,18.02
2023-06-23T22:50:49.093Z,18.00
2023-06-23T22:53:15.388Z,17.98
2023-06-23T22:55:41.705Z,18.00
2023-06-23T22:58:07.966Z,18.00
2023-06-23T23:00:34.301Z,18.00
2023-06-23T23:03:00.883Z,18.02
2023-06-23T23:05:27.200Z,18.05
2023-06-23T23:07:53.619Z,18.05
2023-06-23T23:10:19.770Z,18.03
2023-06-23T23:12:45.955Z,18.05
2023-06-23T23:15:12.086Z,18.09
2023-06-23T23:17:38.547Z,18.09
2023-06-23T23:20:04.780Z,18.10
2023-06-23T23:22:31.120Z,18.14
2023-06-23T23:24:58.762Z,18.17
2023-06-23T23:27:25.190Z,18.19
2023-06-23T23:29:54.125Z,18.18
2023-06-23T23:32:21.893Z,18.13
2023-06-23T23:34:51.338Z,18.12
2023-06-23T23:37:17.480Z,18.10
2023-06-23T23:39:43.614Z,18.08
2023-06-23T23:42:09.720Z,18.05
2023-06-23T23:44:35.866Z,18.02
2023-06-23T23:47:02.075Z,18.02
2023-06-23T23:49:28.280Z,17.99
2023-06-23T23:51:54.536Z,17.99
2023-06-23T23:54:20.742Z,17.99
2023-06-23T23:56:46.888Z,18.01
2023-06-23T23:59:13.112Z,18.00
